CheckWX is a tool to help pilots better visualize weather data.  It is not intended as a substitute for an official pre-flight weather briefing.

02:41:01 UTC

KHOT TAF
Memorial Field Airport
Hot Springs, Arkansas, USA
KHOT 012323Z 0200/0224 19007KT P6SM SCT200 FM021600 15008KT P6SM BKN250 FM022300 17010KT P6SM OVC100

Apr-2@
00:00 UTC

Apr-2 @ 00:00 UTC

Apr-2@
16:00 UTC

Apr-2 @ 16:00 UTC

TAF KHOT 012323Z 0200/0224 19007KT P6SM SCT200
Wind
  • 190° at 7 KTS
Cloud Levels
  • Scattered at 20,000' AGL

Apr-2@
16:00 UTC

Apr-2 @ 16:00 UTC

Apr-2@
23:00 UTC

Apr-2 @ 23:00 UTC

FM021600 15008KT P6SM BKN250

From

From Standard forecast or significant change

Wind
  • 150° at 8 KTS
Cloud Levels
  • Broken at 25,000' AGL

Apr-2@
23:00 UTC

Apr-2 @ 23:00 UTC

Apr-3@
00:00 UTC

Apr-3 @ 00:00 UTC

FM022300 17010KT P6SM OVC100

From

From Standard forecast or significant change

Wind
  • 170° at 10 KTS
Cloud Levels
  • Overcast at 10,000' AGL